Terminal Aerodrome Forecast
Issued by NWS

Home | Current Version | Previous Version | Text Only | Print | Product List | Glossary On
Versions: 1 2 3 4 5 6 7 8 9 10 11 12 13 14 15 16 17 18 19 20 21 22 23 24 25 26
000
FTUS43 KDLH 020500 AAA
TAFHIB
TAF AMD
KHIB 020545Z 0206/0306 29010G15KT P6SM SCT025 SCT150
      TEMPO 0206/0208 BKN025
     FM021500 25014G25KT P6SM SKC
     FM021800 27018G29KT P6SM VCSH SCT030
     FM030000 30014G24KT P6SM BKN150
     FM030300 31012G22KT P6SM BKN025 OVC050=

USA.gov is the U.S. government's official web portal to all federal, state and local government web resources and services.